createdAt,value
2022-09-26T00:01:36.299Z,13.46
2022-09-26T00:04:07.935Z,13.44
2022-09-26T00:06:34.406Z,13.41
2022-09-26T00:09:00.930Z,13.37
2022-09-26T00:11:31.109Z,13.34
2022-09-26T00:14:03.243Z,13.32
2022-09-26T00:16:29.743Z,13.28
2022-09-26T00:18:58.292Z,13.25
2022-09-26T00:21:26.631Z,13.20
2022-09-26T00:23:53.803Z,13.16
2022-09-26T00:26:22.476Z,13.12
2022-09-26T00:28:49.555Z,13.07
2022-09-26T00:31:24.586Z,13.02
2022-09-26T00:33:51.136Z,12.96
2022-09-26T00:36:17.786Z,12.92
2022-09-26T00:38:44.608Z,12.87
2022-09-26T00:41:12.195Z,12.83
2022-09-26T00:43:54.347Z,12.78
2022-09-26T00:46:36.885Z,12.74
2022-09-26T00:49:15.343Z,12.70
2022-09-26T00:51:48.282Z,12.65
2022-09-26T00:54:17.307Z,12.61
2022-09-26T00:56:46.786Z,12.56
2022-09-26T00:59:25.236Z,12.52
2022-09-26T01:01:53.054Z,12.47
2022-09-26T01:04:20.410Z,12.45
2022-09-26T01:06:47.096Z,12.42
2022-09-26T01:09:14.584Z,12.37
2022-09-26T01:11:42.683Z,12.33
2022-09-26T01:14:12.208Z,12.29
2022-09-26T01:16:40.337Z,12.24
2022-09-26T01:19:52.002Z,12.21
2022-09-26T01:22:48.493Z,12.16
2022-09-26T01:25:57.926Z,12.12
2022-09-26T01:29:04.134Z,12.07
2022-09-26T01:32:36.926Z,12.02
2022-09-26T01:35:27.531Z,11.97
2022-09-26T01:38:34.534Z,11.94
2022-09-26T01:41:28.552Z,11.90
2022-09-26T01:44:13.138Z,11.85
2022-09-26T01:46:54.151Z,11.82
2022-09-26T01:49:30.749Z,11.79
2022-09-26T01:52:38.465Z,11.76
2022-09-26T01:55:18.011Z,11.72
2022-09-26T01:57:52.150Z,11.68
2022-09-26T02:00:19.309Z,11.64
2022-09-26T02:02:48.145Z,11.61
2022-09-26T02:05:28.353Z,11.58
2022-09-26T02:08:12.395Z,11.54
2022-09-26T02:10:46.987Z,11.52
2022-09-26T02:13:18.877Z,11.48
2022-09-26T02:15:52.072Z,11.45
2022-09-26T02:18:30.163Z,11.43
2022-09-26T02:21:11.553Z,11.41
2022-09-26T02:23:38.209Z,11.37
2022-09-26T02:26:05.198Z,11.32
2022-09-26T02:28:31.853Z,11.28
2022-09-26T02:31:00.669Z,11.25
2022-09-26T02:33:28.449Z,11.23
2022-09-26T02:35:55.129Z,11.22
2022-09-26T02:38:28.028Z,11.22
2022-09-26T02:41:17.970Z,11.20
2022-09-26T02:44:13.734Z,11.18
2022-09-26T02:47:10.162Z,11.14
2022-09-26T02:50:07.773Z,11.10
2022-09-26T02:53:15.056Z,11.08
2022-09-26T02:56:16.783Z,11.05
2022-09-26T02:59:05.942Z,11.04
2022-09-26T03:01:59.657Z,11.03
2022-09-26T03:04:45.067Z,11.03
2022-09-26T03:07:18.493Z,11.03
2022-09-26T03:09:46.188Z,11.02
2022-09-26T03:12:13.169Z,11.03
2022-09-26T03:14:42.147Z,11.02
2022-09-26T03:17:09.561Z,11.01
2022-09-26T03:19:45.926Z,11.01
2022-09-26T03:22:14.513Z,11.00
2022-09-26T03:24:42.307Z,10.98
2022-09-26T03:27:11.535Z,10.97
2022-09-26T03:29:41.332Z,10.96
2022-09-26T03:32:09.042Z,10.94
2022-09-26T03:34:39.173Z,10.93
2022-09-26T03:37:06.138Z,10.92
2022-09-26T03:39:32.604Z,10.91
2022-09-26T03:41:58.979Z,10.89
2022-09-26T03:44:25.370Z,10.88
2022-09-26T03:46:51.852Z,10.86
2022-09-26T03:49:18.281Z,10.85
2022-09-26T03:51:45.435Z,10.83
2022-09-26T03:54:12.974Z,10.81
2022-09-26T03:56:40.545Z,10.80
2022-09-26T03:59:08.490Z,10.79
2022-09-26T04:01:35.121Z,10.76
2022-09-26T04:04:02.240Z,10.73
2022-09-26T04:06:28.739Z,10.69
2022-09-26T04:08:55.915Z,10.66
2022-09-26T04:11:23.917Z,10.62
2022-09-26T04:13:53.186Z,10.59
2022-09-26T04:16:21.955Z,10.55
2022-09-26T04:18:48.783Z,10.52
2022-09-26T04:21:16.148Z,10.50
2022-09-26T04:23:43.621Z,10.47
2022-09-26T04:26:22.547Z,10.45
2022-09-26T04:28:54.025Z,10.42
2022-09-26T04:31:21.285Z,10.40
2022-09-26T04:33:48.506Z,10.37
2022-09-26T04:36:16.653Z,10.35
2022-09-26T04:38:43.711Z,10.34
2022-09-26T04:41:13.564Z,10.31
2022-09-26T04:43:40.792Z,10.29
2022-09-26T04:46:10.467Z,10.28
2022-09-26T04:48:37.533Z,10.27
2022-09-26T04:51:06.664Z,10.26
2022-09-26T04:53:34.653Z,10.26
2022-09-26T04:56:02.075Z,10.26
2022-09-26T04:58:29.036Z,10.27
2022-09-26T05:00:55.886Z,10.27
2022-09-26T05:03:22.513Z,10.29
2022-09-26T05:05:49.530Z,10.29
2022-09-26T05:08:16.714Z,10.30
2022-09-26T05:10:44.565Z,10.31
2022-09-26T05:13:11.081Z,10.32
2022-09-26T05:15:39.399Z,10.33
2022-09-26T05:18:07.889Z,10.34
2022-09-26T05:20:35.337Z,10.36
2022-09-26T05:23:03.511Z,10.37
2022-09-26T05:25:55.298Z,10.39
2022-09-26T05:28:22.481Z,10.41
2022-09-26T05:30:51.241Z,10.42
2022-09-26T05:33:19.660Z,10.45
2022-09-26T05:36:00.023Z,10.47
2022-09-26T05:38:27.500Z,10.51
2022-09-26T05:40:56.881Z,10.54
2022-09-26T05:43:35.461Z,10.56
2022-09-26T05:46:08.358Z,10.59
2022-09-26T05:48:37.066Z,10.62
2022-09-26T05:51:10.351Z,10.64
2022-09-26T05:53:37.166Z,10.67
2022-09-26T05:56:05.592Z,10.70
2022-09-26T05:58:35.471Z,10.74
2022-09-26T06:01:07.999Z,10.77
2022-09-26T06:03:35.145Z,10.81
2022-09-26T06:06:16.059Z,10.85
2022-09-26T06:08:43.651Z,10.91
2022-09-26T06:11:14.016Z,10.97
2022-09-26T06:13:45.020Z,11.02
2022-09-26T06:16:18.579Z,11.09
2022-09-26T06:18:46.469Z,11.16
2022-09-26T06:21:16.530Z,11.23
2022-09-26T06:23:43.772Z,11.29
2022-09-26T06:26:21.038Z,11.35
2022-09-26T06:28:49.893Z,11.41
2022-09-26T06:31:18.404Z,11.47
2022-09-26T06:33:53.224Z,11.53
2022-09-26T06:36:21.310Z,11.59
2022-09-26T06:38:48.365Z,11.65
2022-09-26T06:41:18.820Z,11.71
2022-09-26T06:43:46.887Z,11.78
2022-09-26T06:46:14.594Z,11.82
2022-09-26T06:48:42.032Z,11.87
2022-09-26T06:51:09.395Z,11.92
2022-09-26T06:53:35.875Z,11.98
2022-09-26T06:56:02.493Z,12.06
2022-09-26T06:58:28.981Z,12.15
2022-09-26T07:00:57.500Z,12.23
2022-09-26T07:03:25.992Z,12.30
2022-09-26T07:05:56.391Z,12.40
2022-09-26T07:08:37.664Z,12.49
2022-09-26T07:11:32.638Z,12.62
2022-09-26T07:14:01.340Z,12.73
2022-09-26T07:16:28.637Z,12.83
2022-09-26T07:18:55.923Z,12.93
2022-09-26T07:21:22.414Z,13.04
2022-09-26T07:23:49.008Z,13.16
2022-09-26T07:26:15.442Z,13.26
2022-09-26T07:28:41.903Z,13.35
2022-09-26T07:31:08.319Z,13.44
2022-09-26T07:33:35.017Z,13.52
2022-09-26T07:36:05.309Z,13.61
2022-09-26T07:38:32.276Z,13.70
2022-09-26T07:41:00.129Z,13.79
2022-09-26T07:43:45.451Z,13.88
2022-09-26T07:46:31.769Z,13.97
2022-09-26T07:49:16.930Z,14.06
2022-09-26T07:51:43.557Z,14.14
2022-09-26T07:54:10.471Z,14.21
2022-09-26T07:56:38.522Z,14.27
2022-09-26T07:59:05.426Z,14.34
2022-09-26T08:01:42.221Z,14.41
2022-09-26T08:04:11.340Z,14.48
2022-09-26T08:06:37.911Z,14.55
2022-09-26T08:09:04.369Z,14.64
2022-09-26T08:11:30.956Z,14.73
2022-09-26T08:13:58.563Z,14.83
2022-09-26T08:16:26.855Z,14.91
2022-09-26T08:18:56.281Z,14.99
2022-09-26T08:21:23.448Z,15.05
2022-09-26T08:23:50.088Z,15.11
2022-09-26T08:26:20.842Z,15.17
2022-09-26T08:28:47.589Z,15.22
2022-09-26T08:31:15.823Z,15.29
2022-09-26T08:33:43.515Z,15.35
2022-09-26T08:36:12.718Z,15.40
2022-09-26T08:38:39.334Z,15.44
2022-09-26T08:41:31.933Z,15.49
2022-09-26T08:44:29.534Z,15.51
2022-09-26T08:47:09.484Z,15.51
2022-09-26T08:49:54.252Z,15.52
2022-09-26T08:52:23.165Z,15.55
2022-09-26T08:54:51.108Z,15.58
2022-09-26T08:57:23.654Z,15.63
2022-09-26T08:59:50.252Z,15.70
2022-09-26T09:02:33.873Z,15.78
2022-09-26T09:05:06.828Z,15.88
2022-09-26T09:07:33.619Z,15.97
2022-09-26T09:10:05.890Z,16.04
2022-09-26T09:12:48.557Z,16.11
2022-09-26T09:15:56.324Z,16.16
2022-09-26T09:18:41.904Z,16.21
2022-09-26T09:21:41.761Z,16.22
2022-09-26T09:24:43.120Z,16.23
2022-09-26T09:27:53.131Z,16.22
2022-09-26T09:30:49.520Z,16.24
2022-09-26T09:33:27.055Z,16.27
2022-09-26T09:36:11.741Z,16.32
2022-09-26T09:38:47.929Z,16.35
2022-09-26T09:41:39.745Z,16.38
2022-09-26T09:44:45.635Z,16.41
2022-09-26T09:47:18.176Z,16.45
2022-09-26T09:49:48.129Z,16.49
2022-09-26T09:53:05.774Z,16.54
2022-09-26T09:56:02.227Z,16.58
2022-09-26T09:59:03.254Z,16.59
2022-09-26T10:01:44.003Z,16.61
2022-09-26T10:04:42.004Z,16.62
2022-09-26T10:07:09.101Z,16.66
2022-09-26T10:09:41.381Z,16.69
2022-09-26T10:12:23.692Z,16.71
2022-09-26T10:15:02.633Z,16.73
2022-09-26T10:17:32.481Z,16.75
2022-09-26T10:20:00.962Z,16.77
2022-09-26T10:22:37.673Z,16.83
2022-09-26T10:25:21.541Z,16.89
2022-09-26T10:27:59.836Z,16.95
2022-09-26T10:30:48.241Z,17.01
2022-09-26T10:33:26.918Z,17.08
2022-09-26T10:36:11.609Z,17.19
2022-09-26T10:39:10.627Z,17.30
2022-09-26T10:41:41.083Z,17.40
2022-09-26T10:44:47.872Z,17.46
2022-09-26T10:47:25.043Z,17.50
2022-09-26T10:50:16.736Z,17.53
2022-09-26T10:53:13.173Z,17.54
2022-09-26T10:55:57.738Z,17.56
2022-09-26T10:58:29.149Z,17.55
2022-09-26T11:00:59.821Z,17.53
2022-09-26T11:03:43.964Z,17.51
2022-09-26T11:06:34.139Z,17.49
2022-09-26T11:09:03.100Z,17.43
2022-09-26T11:11:39.782Z,17.41
2022-09-26T11:14:08.928Z,17.38
2022-09-26T11:16:53.354Z,17.35
2022-09-26T11:19:34.691Z,17.34
2022-09-26T11:22:08.396Z,17.34
2022-09-26T11:25:11.428Z,17.35
2022-09-26T11:28:06.485Z,17.33
2022-09-26T11:30:37.581Z,17.28
2022-09-26T11:33:11.401Z,17.21
2022-09-26T11:35:44.228Z,17.12
2022-09-26T11:38:21.600Z,17.03
2022-09-26T11:41:38.015Z,16.94
2022-09-26T11:44:37.787Z,16.81
2022-09-26T11:47:19.155Z,16.67
2022-09-26T11:50:02.836Z,16.55
2022-09-26T11:53:01.923Z,16.44
2022-09-26T11:56:03.580Z,16.30
2022-09-26T11:59:10.576Z,16.17
2022-09-26T12:02:21.961Z,16.02
2022-09-26T12:05:27.655Z,15.86
2022-09-26T12:08:47.138Z,15.73
2022-09-26T12:11:32.200Z,15.61
2022-09-26T12:14:09.609Z,15.51
2022-09-26T12:17:14.479Z,15.43
2022-09-26T12:20:13.454Z,15.33
2022-09-26T12:22:59.822Z,15.24
2022-09-26T12:25:41.390Z,15.18
2022-09-26T12:28:19.760Z,15.12
2022-09-26T12:31:04.843Z,15.08
2022-09-26T12:33:58.562Z,15.04
2022-09-26T12:36:50.364Z,14.99
2022-09-26T12:39:42.360Z,14.93
2022-09-26T12:42:48.597Z,14.90
2022-09-26T12:45:21.521Z,14.87
2022-09-26T12:47:58.453Z,14.85
2022-09-26T12:50:56.529Z,14.82
2022-09-26T12:53:36.206Z,14.78
2022-09-26T12:56:33.985Z,14.76
2022-09-26T12:59:08.501Z,14.75
2022-09-26T13:02:04.864Z,14.76
2022-09-26T13:05:05.484Z,14.79
2022-09-26T13:07:35.299Z,14.83
2022-09-26T13:10:21.979Z,14.86
2022-09-26T13:12:53.966Z,14.89
2022-09-26T13:15:30.763Z,14.93
2022-09-26T13:18:26.335Z,14.99
2022-09-26T13:21:02.610Z,15.07
2022-09-26T13:23:53.013Z,15.16
2022-09-26T13:26:31.422Z,15.34
2022-09-26T13:29:17.952Z,15.51
2022-09-26T13:32:15.759Z,15.70
2022-09-26T13:35:06.100Z,15.88
2022-09-26T13:37:56.624Z,16.03
2022-09-26T13:41:30.908Z,16.15
2022-09-26T13:44:36.959Z,16.28
2022-09-26T13:47:35.722Z,16.38
2022-09-26T13:50:25.797Z,16.47
2022-09-26T13:53:06.225Z,16.55
2022-09-26T13:55:33.804Z,16.62
2022-09-26T13:58:20.396Z,16.66
2022-09-26T14:00:53.499Z,16.61
2022-09-26T14:03:21.091Z,16.56
2022-09-26T14:05:54.593Z,16.52
2022-09-26T14:08:42.684Z,16.50
2022-09-26T14:11:29.652Z,16.46
2022-09-26T14:14:17.840Z,16.43
2022-09-26T14:16:46.154Z,16.40
2022-09-26T14:19:35.724Z,16.37
2022-09-26T14:22:25.464Z,16.32
2022-09-26T14:24:53.690Z,16.28
2022-09-26T14:27:37.449Z,16.25
2022-09-26T14:30:32.972Z,16.21
2022-09-26T14:33:09.343Z,16.18
2022-09-26T14:35:38.091Z,16.15
2022-09-26T14:38:16.292Z,16.12
2022-09-26T14:40:59.253Z,16.09
2022-09-26T14:43:30.082Z,16.06
2022-09-26T14:46:17.497Z,16.03
2022-09-26T14:48:47.629Z,16.01
2022-09-26T14:51:46.157Z,16.00
2022-09-26T14:54:44.865Z,15.97
2022-09-26T14:57:47.793Z,15.94
2022-09-26T15:01:08.071Z,15.91
2022-09-26T15:03:41.485Z,15.87
2022-09-26T15:06:17.979Z,15.83
2022-09-26T15:08:44.900Z,15.81
2022-09-26T15:11:29.721Z,15.78
2022-09-26T15:14:31.280Z,15.77
2022-09-26T15:17:00.769Z,15.78
2022-09-26T15:19:37.313Z,15.85
2022-09-26T15:22:16.839Z,15.92
2022-09-26T15:24:45.234Z,15.96
2022-09-26T15:27:20.477Z,15.99
2022-09-26T15:29:54.758Z,16.01
2022-09-26T15:32:29.369Z,16.02
2022-09-26T15:35:04.693Z,16.03
2022-09-26T15:37:35.783Z,16.03
2022-09-26T15:40:17.856Z,16.03
2022-09-26T15:43:01.356Z,16.02
2022-09-26T15:45:48.580Z,16.01
2022-09-26T15:48:20.418Z,15.99
2022-09-26T15:51:05.280Z,15.97
2022-09-26T15:53:52.879Z,15.96
2022-09-26T15:56:38.244Z,15.93
2022-09-26T15:59:40.725Z,15.91
2022-09-26T16:02:30.051Z,15.87
2022-09-26T16:04:57.959Z,15.83
2022-09-26T16:07:39.646Z,15.80
2022-09-26T16:10:27.978Z,15.76
2022-09-26T16:13:00.097Z,15.73
2022-09-26T16:15:29.502Z,15.70
2022-09-26T16:18:01.107Z,15.67
2022-09-26T16:20:30.596Z,15.63
2022-09-26T16:23:05.301Z,15.60
2022-09-26T16:25:48.946Z,15.55
2022-09-26T16:28:17.148Z,15.51
2022-09-26T16:30:54.227Z,15.48
2022-09-26T16:33:32.700Z,15.43
2022-09-26T16:37:02.556Z,15.39
2022-09-26T16:39:55.669Z,15.32
2022-09-26T16:42:25.510Z,15.26
2022-09-26T16:44:59.785Z,15.19
2022-09-26T16:47:44.083Z,15.12
2022-09-26T16:50:39.826Z,15.04
2022-09-26T16:53:11.967Z,14.95
2022-09-26T16:55:38.722Z,14.88
2022-09-26T16:58:11.563Z,14.80
2022-09-26T17:00:58.567Z,14.72
2022-09-26T17:03:53.348Z,14.63
2022-09-26T17:06:20.720Z,14.57
2022-09-26T17:08:47.988Z,14.50
2022-09-26T17:11:16.322Z,14.43
2022-09-26T17:13:51.097Z,14.36
2022-09-26T17:16:21.464Z,14.29
2022-09-26T17:18:52.773Z,14.22
2022-09-26T17:21:24.897Z,14.14
2022-09-26T17:23:54.253Z,14.06
2022-09-26T17:26:35.169Z,13.98
2022-09-26T17:29:43.926Z,13.89
2022-09-26T17:32:48.834Z,13.78
2022-09-26T17:35:31.856Z,13.70
2022-09-26T17:38:05.087Z,13.61
2022-09-26T17:41:14.633Z,13.52
2022-09-26T17:43:42.712Z,13.43
2022-09-26T17:46:37.863Z,13.35
2022-09-26T17:49:26.516Z,13.27
2022-09-26T17:52:18.701Z,13.19
2022-09-26T17:54:48.229Z,13.11
2022-09-26T17:57:41.573Z,13.05
2022-09-26T18:00:17.795Z,12.97
2022-09-26T18:02:49.834Z,12.91
2022-09-26T18:05:32.973Z,12.85
2022-09-26T18:08:13.715Z,12.79
2022-09-26T18:11:14.250Z,12.71
2022-09-26T18:24:01.074Z,12.45
2022-09-26T18:27:11.472Z,12.37
2022-09-26T18:29:45.587Z,12.30
2022-09-26T18:37:22.087Z,12.14
2022-09-26T18:40:39.309Z,12.07
2022-09-26T18:42:48.837Z,12.01
2022-09-26T18:45:42.823Z,11.95
2022-09-26T18:49:14.453Z,11.89
2022-09-26T20:18:55.759Z,10.54
2022-09-26T20:21:49.413Z,10.55
2022-09-26T20:33:55.943Z,10.53
2022-09-26T20:37:34.235Z,10.50
2022-09-26T20:40:49.477Z,10.49
2022-09-26T20:47:31.561Z,10.47
2022-09-26T20:50:17.577Z,10.47
2022-09-26T21:03:27.161Z,10.45
2022-09-26T21:06:04.605Z,10.43
2022-09-26T21:12:47.508Z,10.39
2022-09-26T22:21:50.843Z,9.94
2022-09-26T22:24:20.398Z,10.01
2022-09-26T22:26:47.755Z,10.07
2022-09-26T22:29:15.071Z,10.11
2022-09-26T22:31:43.194Z,10.13
2022-09-26T22:34:12.576Z,10.14
2022-09-26T22:36:39.497Z,10.13
2022-09-26T22:39:07.905Z,10.13
2022-09-26T22:41:34.925Z,10.14
2022-09-26T22:44:03.408Z,10.15
2022-09-26T22:46:34.169Z,10.17
2022-09-26T22:49:05.641Z,10.18
2022-09-26T22:51:32.776Z,10.17
2022-09-26T22:53:59.786Z,10.13
2022-09-26T22:56:27.378Z,10.12
2022-09-26T22:58:54.592Z,10.15
2022-09-26T23:01:27.442Z,10.18
2022-09-26T23:03:57.978Z,10.18
2022-09-26T23:06:27.326Z,10.15
2022-09-26T23:08:55.618Z,10.14
2022-09-26T23:11:25.507Z,10.14
2022-09-26T23:13:53.131Z,10.12
2022-09-26T23:16:23.091Z,10.12
2022-09-26T23:18:54.419Z,10.11
2022-09-26T23:21:27.402Z,10.10
2022-09-26T23:23:55.709Z,10.09
2022-09-26T23:26:29.036Z,10.09
2022-09-26T23:29:08.797Z,10.09
2022-09-26T23:31:35.763Z,10.07
2022-09-26T23:34:03.063Z,10.06
2022-09-26T23:36:30.025Z,10.04
2022-09-26T23:38:57.518Z,10.02
2022-09-26T23:41:24.362Z,10.01
2022-09-26T23:43:51.710Z,10.00
2022-09-26T23:46:18.537Z,9.97
2022-09-26T23:48:45.574Z,9.96
2022-09-26T23:51:12.152Z,9.97
2022-09-26T23:53:38.767Z,9.95
2022-09-26T23:56:11.961Z,9.93
2022-09-26T23:58:39.256Z,9.91
